Αναφορές METAR Αεροδρομίων

 

LGTS - THESSALONIKI - GREECE
Ενημερώθηκε: 19/04/2021 01:50
Σχεδόν νεφελώδης
Σχεδόν νεφελώδης
 Ανεμος από calm
Ανεμος: Απνοια
Θερμοκρασία: 13°C
Σημείο Δρόσου: 12°C
Υγρασία: 94%
Βαρόμετρο: 1014 hPa
Clouds: Σχεδόν νεφελώδης
Visibility: 10 km
Cloud details: Σχεδόν νεφελώδης 762 m
2021/04/18 22:50 LGTS 182250Z 00000KT 9999 BKN025 13/12 Q1014 NOSIG
LGLR - LARTISA - GREECE
Ενημερώθηκε: 19/04/2021 01:50
Μερικώς νεφελώδης
Μερικώς νεφελώδης
 Ανεμος από calm
Ανεμος: Απνοια
Θερμοκρασία: 11°C
Σημείο Δρόσου: 10°C
Υγρασία: 94%
Βαρόμετρο: 1013 hPa
Clouds: Μερικώς νεφελώδης
Visibility: 10 km
Cloud details: Αραιές Νεφώσεις 914 m
Μερικώς νεφελώδης 2438 m
2021/04/18 22:50 LGLR 182250Z 00000KT 9999 FEW030 SCT080 11/10 Q1013 BLU
 
LGKZ - KOZANI - GREECE
Ενημερώθηκε: 19/04/2021 02:20

 Ανεμος από varies
Ανεμος: varies 2 km/h
Θερμοκρασία: 10°C
Σημείο Δρόσου: 8°C
Υγρασία: 88%
Βαρόμετρο: 1013 hPa
2021/04/18 23:20 LGKZ 182320Z AUTO VRB01KT //// // ////// 10/08 Q1013 RE//
LGKV - KAVALA - GREECE
Ενημερώθηκε: 18/04/2021 21:50
NOT Current
Αραιές Νεφώσεις
Αραιές Νεφώσεις
 Ανεμος από varies
Ανεμος: varies 4 km/h
Θερμοκρασία: 12°C
Σημείο Δρόσου: 10°C
Υγρασία: 88%
Βαρόμετρο: 1014 hPa
Clouds: Αραιές Νεφώσεις
Visibility: 10 km
Cloud details: Αραιές Νεφώσεις 914 m
2021/04/18 18:50 LGKV 181850Z VRB02KT 9999 FEW030 12/10 Q1014
 
LGIO - IOANNINA - GREECE
Ενημερώθηκε: 19/04/2021 02:20

 Ανεμος από varies
Ανεμος: varies 6 km/h
Θερμοκρασία: 9°C
Σημείο Δρόσου: 6°C
Υγρασία: 82%
Βαρόμετρο: 1014 hPa
2021/04/18 23:20 LGIO 182320Z AUTO VRB03KT //// // ////// 09/06 Q1014 RERA
LGBL - BOLOS - GREECE
Ενημερώθηκε: 19/04/2021 01:50
Αραιές Νεφώσεις
Αραιές Νεφώσεις
 Ανεμος από calm
Ανεμος: Απνοια
Θερμοκρασία: 7°C
Σημείο Δρόσου: 7°C
Υγρασία: 100%
Βαρόμετρο: 1013 hPa
Clouds: Αραιές Νεφώσεις
Visibility: 10 km
Cloud details: Αραιές Νεφώσεις 762 m
2021/04/18 22:50 LGBL 182250Z 00000KT 9999 FEW025 07/07 Q1013
 
LGMT - MITILINI - GREECE
Ενημερώθηκε: 19/04/2021 01:50
Μερικώς νεφελώδης
Μερικώς νεφελώδης
 Ανεμος από Ν
Ανεμος: Ν 17 km/h
Θερμοκρασία: 17°C
Σημείο Δρόσου: 14°C
Υγρασία: 83%
Βαρόμετρο: 1014 hPa
Clouds: Μερικώς νεφελώδης
Visibility: 10 km
Cloud details: Μερικώς νεφελώδης 762 m
2021/04/18 22:50 LGMT 182250Z 17009KT 9999 SCT025 17/14 Q1014
LGAV - ATHENS - GREECE
Ενημερώθηκε: 19/04/2021 01:50
Σχεδόν νεφελώδης
Σχεδόν νεφελώδης
 Ανεμος από ΔΝΔ
Ανεμος: ΔΝΔ 4 km/h
Θερμοκρασία: 11°C
Σημείο Δρόσου: 10°C
Υγρασία: 94%
Βαρόμετρο: 1013 hPa
Clouds: Σχεδόν νεφελώδης
Visibility: 10 km
Cloud details: Αραιές Νεφώσεις 762 m
Σχεδόν νεφελώδης 2134 m
2021/04/18 22:50 LGAV 182250Z 24002KT 9999 FEW025 BKN070 11/10 Q1013 NOSIG
 
LGRP - RODOS - GREECE
Ενημερώθηκε: 19/04/2021 02:20
Αραιές Νεφώσεις
Αραιές Νεφώσεις
 Ανεμος από calm
Ανεμος: Απνοια
Θερμοκρασία: 18°C
Σημείο Δρόσου: 9°C
Υγρασία: 56%
Βαρόμετρο: 1014 hPa
Clouds: Αραιές Νεφώσεις
Visibility: 10 km
Cloud details: Αραιές Νεφώσεις 549 m
2021/04/18 23:20 LGRP 182320Z 00000KT 9999 FEW018 18/09 Q1014 NOSIG
LGIR - HRAKLIO/KRITI - GREECE
Ενημερώθηκε: 19/04/2021 02:20
Μερικώς νεφελώδης
Μερικώς νεφελώδης
 Ανεμος από Ν
Ανεμος: Ν 13 km/h
Θερμοκρασία: 17°C
Σημείο Δρόσου: 13°C
Υγρασία: 77%
Βαρόμετρο: 1013 hPa
Clouds: Μερικώς νεφελώδης
Visibility: 10 km
Cloud details: Αραιές Νεφώσεις 914 m
Μερικώς νεφελώδης 2438 m
2021/04/18 23:20 LGIR 182320Z 17007KT 9999 FEW030 SCT080 17/13 Q1013 NOSIG
 
LGMK - MIKONOS - GREECE
Ενημερώθηκε: 18/04/2021 20:50
NOT Current
Drizzle, Σχεδόν νεφελώδης
Drizzle, Σχεδόν νεφελώδης
 Ανεμος από ΝΑ
Ανεμος: ΝΑ 17 km/h
Θερμοκρασία: 18°C
Σημείο Δρόσου: 11°C
Υγρασία: 64%
Βαρόμετρο: 1014 hPa
Περίληψη: Drizzle
Clouds: Σχεδόν νεφελώδης
Visibility: 7 km
Cloud details: Αραιές Νεφώσεις 366 m
Σχεδόν νεφελώδης 762 m
2021/04/18 17:50 LGMK 181750Z 13009KT 7000 DZ FEW012 BKN025 18/11 Q1014
LGKR - KERKIRA - GREECE
Ενημερώθηκε: 18/04/2021 23:50
NOT Current
Ασθενής βροχή, Συννεφιά
Ασθενής βροχή, Συννεφιά
 Ανεμος από ΔΒΔ
Ανεμος: ΔΒΔ 11 km/h
Θερμοκρασία: 14°C
Σημείο Δρόσου: 9°C
Υγρασία: 72%
Βαρόμετρο: 1015 hPa
Περίληψη: Ασθενής βροχή
Clouds: Συννεφιά
Visibility: 10 km
Cloud details: Αραιές Νεφώσεις 762 m
Συννεφιά 2438 m
2021/04/18 20:50 LGKR 182050Z 30006KT 9999 -RA FEW025 OVC080 14/09 Q1015 BECMG RA